sensor_id;sensor_type;location;lat;lon;timestamp;pressure;altitude;pressure_sealevel;temperature
67509;BMP280;54354;44.724;11.284;2023-03-04T00:02:15;101771.63;;;15.03
67509;BMP280;54354;44.724;11.284;2023-03-04T00:04:40;101777.34;;;15.02
67509;BMP280;54354;44.724;11.284;2023-03-04T00:07:06;101771.72;;;15.00
67509;BMP280;54354;44.724;11.284;2023-03-04T00:09:31;101771.81;;;14.93
67509;BMP280;54354;44.724;11.284;2023-03-04T00:11:57;101762.78;;;14.86
67509;BMP280;54354;44.724;11.284;2023-03-04T00:14:22;101767.78;;;14.84
67509;BMP280;54354;44.724;11.284;2023-03-04T00:16:48;101775.22;;;14.73
67509;BMP280;54354;44.724;11.284;2023-03-04T00:19:13;101778.81;;;14.63
67509;BMP280;54354;44.724;11.284;2023-03-04T00:21:39;101785.88;;;14.50
67509;BMP280;54354;44.724;11.284;2023-03-04T00:24:05;101782.16;;;14.44
67509;BMP280;54354;44.724;11.284;2023-03-04T00:26:31;101783.34;;;14.43
67509;BMP280;54354;44.724;11.284;2023-03-04T00:28:56;101777.66;;;14.41
67509;BMP280;54354;44.724;11.284;2023-03-04T00:31:22;101771.22;;;14.38
67509;BMP280;54354;44.724;11.284;2023-03-04T00:33:47;101786.53;;;14.34
67509;BMP280;54354;44.724;11.284;2023-03-04T00:36:13;101785.78;;;14.34
67509;BMP280;54354;44.724;11.284;2023-03-04T00:38:38;101789.19;;;14.34
67509;BMP280;54354;44.724;11.284;2023-03-04T00:41:04;101791.91;;;14.30
67509;BMP280;54354;44.724;11.284;2023-03-04T00:43:29;101782.41;;;14.29
67509;BMP280;54354;44.724;11.284;2023-03-04T00:45:56;101787.78;;;14.26
67509;BMP280;54354;44.724;11.284;2023-03-04T00:48:22;101781.69;;;14.25
67509;BMP280;54354;44.724;11.284;2023-03-04T00:50:48;101779.44;;;14.24
67509;BMP280;54354;44.724;11.284;2023-03-04T00:53:15;101775.66;;;14.21
67509;BMP280;54354;44.724;11.284;2023-03-04T00:55:42;101779.88;;;14.19
67509;BMP280;54354;44.724;11.284;2023-03-04T00:58:07;101782.56;;;14.19
67509;BMP280;54354;44.724;11.284;2023-03-04T01:00:33;101778.78;;;14.16
67509;BMP280;54354;44.724;11.284;2023-03-04T01:02:59;101779.94;;;14.15
67509;BMP280;54354;44.724;11.284;2023-03-04T01:05:24;101781.84;;;14.15
67509;BMP280;54354;44.724;11.284;2023-03-04T01:07:50;101784.91;;;14.13
67509;BMP280;54354;44.724;11.284;2023-03-04T01:10:16;101786.41;;;14.14
67509;BMP280;54354;44.724;11.284;2023-03-04T01:12:42;101785.66;;;14.14
67509;BMP280;54354;44.724;11.284;2023-03-04T01:15:09;101777.69;;;14.14
67509;BMP280;54354;44.724;11.284;2023-03-04T01:17:35;101778.03;;;14.16
67509;BMP280;54354;44.724;11.284;2023-03-04T01:20:01;101786.03;;;14.16
67509;BMP280;54354;44.724;11.284;2023-03-04T01:22:26;101780.28;;;14.17
67509;BMP280;54354;44.724;11.284;2023-03-04T01:24:52;101777.22;;;14.19
67509;BMP280;54354;44.724;11.284;2023-03-04T01:27:17;101779.84;;;14.22
67509;BMP280;54354;44.724;11.284;2023-03-04T01:29:43;101777.19;;;14.22
67509;BMP280;54354;44.724;11.284;2023-03-04T01:32:08;101779.53;;;14.17
67509;BMP280;54354;44.724;11.284;2023-03-04T01:34:34;101768.94;;;14.13
67509;BMP280;54354;44.724;11.284;2023-03-04T01:37:02;101764.81;;;14.09
67509;BMP280;54354;44.724;11.284;2023-03-04T01:39:28;101771.28;;;14.08
67509;BMP280;54354;44.724;11.284;2023-03-04T01:41:54;101764.88;;;14.05
67509;BMP280;54354;44.724;11.284;2023-03-04T01:44:20;101764.91;;;14.01
67509;BMP280;54354;44.724;11.284;2023-03-04T01:46:50;101758.91;;;13.94
67509;BMP280;54354;44.724;11.284;2023-03-04T01:49:16;101767.66;;;13.98
67509;BMP280;54354;44.724;11.284;2023-03-04T01:51:44;101762.34;;;13.94
67509;BMP280;54354;44.724;11.284;2023-03-04T01:54:10;101759.66;;;13.94
67509;BMP280;54354;44.724;11.284;2023-03-04T01:56:38;101754.06;;;13.89
67509;BMP280;54354;44.724;11.284;2023-03-04T02:01:46;101747.59;;;13.90
67509;BMP280;54354;44.724;11.284;2023-03-04T02:04:13;101751.09;;;13.83
67509;BMP280;54354;44.724;11.284;2023-03-04T02:06:40;101754.50;;;13.84
67509;BMP280;54354;44.724;11.284;2023-03-04T02:09:06;101751.06;;;13.87
67509;BMP280;54354;44.724;11.284;2023-03-04T02:11:34;101747.22;;;13.88
67509;BMP280;54354;44.724;11.284;2023-03-04T02:14:00;101752.50;;;13.91
67509;BMP280;54354;44.724;11.284;2023-03-04T02:16:26;101756.31;;;13.90
67509;BMP280;54354;44.724;11.284;2023-03-04T02:18:52;101755.19;;;13.88
67509;BMP280;54354;44.724;11.284;2023-03-04T02:26:48;101741.03;;;13.94
67509;BMP280;54354;44.724;11.284;2023-03-04T02:29:15;101739.97;;;13.92
67509;BMP280;54354;44.724;11.284;2023-03-04T02:31:51;101741.81;;;13.95
67509;BMP280;54354;44.724;11.284;2023-03-04T02:34:21;101742.44;;;14.02
67509;BMP280;54354;44.724;11.284;2023-03-04T02:36:49;101733.59;;;14.09
67509;BMP280;54354;44.724;11.284;2023-03-04T02:39:28;101738.09;;;14.16
67509;BMP280;54354;44.724;11.284;2023-03-04T02:41:55;101748.94;;;14.28
67509;BMP280;54354;44.724;11.284;2023-03-04T02:44:25;101735.25;;;14.26
67509;BMP280;54354;44.724;11.284;2023-03-04T02:46:52;101736.69;;;14.31
67509;BMP280;54354;44.724;11.284;2023-03-04T02:49:19;101735.53;;;14.32
67509;BMP280;54354;44.724;11.284;2023-03-04T02:51:45;101732.88;;;14.32
67509;BMP280;54354;44.724;11.284;2023-03-04T02:54:15;101731.44;;;14.27
67509;BMP280;54354;44.724;11.284;2023-03-04T02:56:48;101730.31;;;14.25
67509;BMP280;54354;44.724;11.284;2023-03-04T02:59:14;101730.31;;;14.25
67509;BMP280;54354;44.724;11.284;2023-03-04T03:01:40;101728.94;;;14.17
67509;BMP280;54354;44.724;11.284;2023-03-04T03:04:07;101725.56;;;14.13
67509;BMP280;54354;44.724;11.284;2023-03-04T03:06:33;101724.41;;;14.14
67509;BMP280;54354;44.724;11.284;2023-03-04T03:08:58;101726.28;;;14.17
67509;BMP280;54354;44.724;11.284;2023-03-04T03:11:24;101727.34;;;14.19
67509;BMP280;54354;44.724;11.284;2023-03-04T03:13:50;101725.81;;;14.22
67509;BMP280;54354;44.724;11.284;2023-03-04T03:16:16;101724.66;;;14.23
67509;BMP280;54354;44.724;11.284;2023-03-04T03:18:42;101723.81;;;14.26
67509;BMP280;54354;44.724;11.284;2023-03-04T03:21:07;101733.75;;;14.25
67509;BMP280;54354;44.724;11.284;2023-03-04T03:23:33;101734.09;;;14.27
67509;BMP280;54354;44.724;11.284;2023-03-04T03:25:59;101740.56;;;14.26
67509;BMP280;54354;44.724;11.284;2023-03-04T03:28:26;101737.53;;;14.24
67509;BMP280;54354;44.724;11.284;2023-03-04T03:30:52;101734.94;;;14.21
67509;BMP280;54354;44.724;11.284;2023-03-04T03:33:18;101727.44;;;14.12
67509;BMP280;54354;44.724;11.284;2023-03-04T03:35:43;101727.97;;;14.03
67509;BMP280;54354;44.724;11.284;2023-03-04T03:38:10;101720.88;;;13.93
67509;BMP280;54354;44.724;11.284;2023-03-04T03:40:35;101725.97;;;13.84
67509;BMP280;54354;44.724;11.284;2023-03-04T03:43:01;101725.31;;;13.76
67509;BMP280;54354;44.724;11.284;2023-03-04T03:45:26;101719.69;;;13.71
67509;BMP280;54354;44.724;11.284;2023-03-04T03:47:52;101721.66;;;13.67
67509;BMP280;54354;44.724;11.284;2023-03-04T03:50:18;101728.50;;;13.64
67509;BMP280;54354;44.724;11.284;2023-03-04T03:52:43;101726.25;;;13.63
67509;BMP280;54354;44.724;11.284;2023-03-04T03:55:09;101730.47;;;13.60
67509;BMP280;54354;44.724;11.284;2023-03-04T03:57:34;101724.03;;;13.58
67509;BMP280;54354;44.724;11.284;2023-03-04T04:00:00;101723.66;;;13.56
67509;BMP280;54354;44.724;11.284;2023-03-04T04:02:25;101725.63;;;13.51
67509;BMP280;54354;44.724;11.284;2023-03-04T04:04:51;101728.72;;;13.50
67509;BMP280;54354;44.724;11.284;2023-03-04T04:07:17;101732.47;;;13.52
67509;BMP280;54354;44.724;11.284;2023-03-04T04:09:43;101728.66;;;13.54
67509;BMP280;54354;44.724;11.284;2023-03-04T04:12:09;101727.13;;;13.52
67509;BMP280;54354;44.724;11.284;2023-03-04T04:14:35;101720.72;;;13.50
67509;BMP280;54354;44.724;11.284;2023-03-04T04:17:01;101723.72;;;13.52
67509;BMP280;54354;44.724;11.284;2023-03-04T04:19:26;101727.91;;;13.53
67509;BMP280;54354;44.724;11.284;2023-03-04T04:21:52;101727.09;;;13.56
67509;BMP280;54354;44.724;11.284;2023-03-04T04:24:17;101725.53;;;13.59
67509;BMP280;54354;44.724;11.284;2023-03-04T04:26:43;101722.50;;;13.60
67509;BMP280;54354;44.724;11.284;2023-03-04T04:29:09;101725.94;;;13.57
67509;BMP280;54354;44.724;11.284;2023-03-04T04:31:37;101730.16;;;13.55
67509;BMP280;54354;44.724;11.284;2023-03-04T04:34:02;101727.13;;;13.52
67509;BMP280;54354;44.724;11.284;2023-03-04T04:36:28;101721.84;;;13.49
67509;BMP280;54354;44.724;11.284;2023-03-04T04:38:53;101721.53;;;13.47
67509;BMP280;54354;44.724;11.284;2023-03-04T04:41:21;101715.44;;;13.46
67509;BMP280;54354;44.724;11.284;2023-03-04T04:43:47;101714.53;;;13.57
67509;BMP280;54354;44.724;11.284;2023-03-04T04:46:14;101710.34;;;13.59
67509;BMP280;54354;44.724;11.284;2023-03-04T04:48:40;101726.59;;;13.65
67509;BMP280;54354;44.724;11.284;2023-03-04T04:51:06;101721.66;;;13.67
67509;BMP280;54354;44.724;11.284;2023-03-04T04:53:31;101720.81;;;13.70
67509;BMP280;54354;44.724;11.284;2023-03-04T04:55:57;101715.88;;;13.72
67509;BMP280;54354;44.724;11.284;2023-03-04T04:58:22;101715.19;;;13.68
67509;BMP280;54354;44.724;11.284;2023-03-04T05:00:48;101707.22;;;13.64
67509;BMP280;54354;44.724;11.284;2023-03-04T05:03:13;101702.38;;;13.59
67509;BMP280;54354;44.724;11.284;2023-03-04T05:05:39;101709.22;;;13.57
67509;BMP280;54354;44.724;11.284;2023-03-04T05:08:04;101707.38;;;13.54
67509;BMP280;54354;44.724;11.284;2023-03-04T05:10:30;101709.66;;;13.51
67509;BMP280;54354;44.724;11.284;2023-03-04T05:12:56;101718.06;;;13.50
67509;BMP280;54354;44.724;11.284;2023-03-04T05:15:21;101724.50;;;13.49
67509;BMP280;54354;44.724;11.284;2023-03-04T05:17:47;101719.63;;;13.47
67509;BMP280;54354;44.724;11.284;2023-03-04T05:20:12;101719.63;;;13.47
67509;BMP280;54354;44.724;11.284;2023-03-04T05:22:38;101723.41;;;13.46
67509;BMP280;54354;44.724;11.284;2023-03-04T05:25:04;101717.34;;;13.46
67509;BMP280;54354;44.724;11.284;2023-03-04T05:27:29;101715.44;;;13.46
67509;BMP280;54354;44.724;11.284;2023-03-04T05:29:55;101720.00;;;13.46
67509;BMP280;54354;44.724;11.284;2023-03-04T05:32:24;101720.38;;;13.48
67509;BMP280;54354;44.724;11.284;2023-03-04T05:34:49;101725.25;;;13.53
67509;BMP280;54354;44.724;11.284;2023-03-04T05:37:15;101725.19;;;13.57
67509;BMP280;54354;44.724;11.284;2023-03-04T05:39:40;101722.53;;;13.57
67509;BMP280;54354;44.724;11.284;2023-03-04T05:42:06;101727.06;;;13.60
67509;BMP280;54354;44.724;11.284;2023-03-04T05:44:31;101724.78;;;13.58
67509;BMP280;54354;44.724;11.284;2023-03-04T05:46:57;101730.91;;;13.55
67509;BMP280;54354;44.724;11.284;2023-03-04T05:49:22;101732.44;;;13.56
67509;BMP280;54354;44.724;11.284;2023-03-04T05:51:48;101737.75;;;13.56
67509;BMP280;54354;44.724;11.284;2023-03-04T05:54:13;101736.59;;;13.57
67509;BMP280;54354;44.724;11.284;2023-03-04T05:56:39;101738.91;;;13.55
67509;BMP280;54354;44.724;11.284;2023-03-04T05:59:04;101749.22;;;13.49
67509;BMP280;54354;44.724;11.284;2023-03-04T06:01:30;101750.03;;;13.46
67509;BMP280;54354;44.724;11.284;2023-03-04T06:03:55;101747.41;;;13.43
67509;BMP280;54354;44.724;11.284;2023-03-04T06:06:21;101751.66;;;13.37
67509;BMP280;54354;44.724;11.284;2023-03-04T06:08:46;101755.06;;;13.37
67509;BMP280;54354;44.724;11.284;2023-03-04T06:11:12;101747.84;;;13.38
67509;BMP280;54354;44.724;11.284;2023-03-04T06:13:37;101763.00;;;13.41
67509;BMP280;54354;44.724;11.284;2023-03-04T06:16:04;101753.53;;;13.40
67509;BMP280;54354;44.724;11.284;2023-03-04T06:18:30;101758.84;;;13.40
67509;BMP280;54354;44.724;11.284;2023-03-04T06:21:00;101745.63;;;13.33
67509;BMP280;54354;44.724;11.284;2023-03-04T06:23:26;101753.94;;;13.38
67509;BMP280;54354;44.724;11.284;2023-03-04T06:25:53;101755.06;;;13.37
67509;BMP280;54354;44.724;11.284;2023-03-04T06:28:18;101755.44;;;13.39
67509;BMP280;54354;44.724;11.284;2023-03-04T06:30:44;101765.66;;;13.41
67509;BMP280;54354;44.724;11.284;2023-03-04T06:33:09;101756.94;;;13.40
67509;BMP280;54354;44.724;11.284;2023-03-04T06:35:35;101766.09;;;13.36
67509;BMP280;54354;44.724;11.284;2023-03-04T06:38:00;101761.63;;;13.29
67509;BMP280;54354;44.724;11.284;2023-03-04T06:40:26;101773.03;;;13.26
67509;BMP280;54354;44.724;11.284;2023-03-04T06:42:51;101771.59;;;13.21
67509;BMP280;54354;44.724;11.284;2023-03-04T06:45:17;101769.31;;;13.20
67509;BMP280;54354;44.724;11.284;2023-03-04T06:47:42;101773.53;;;13.17
67509;BMP280;54354;44.724;11.284;2023-03-04T06:50:10;101770.53;;;13.12
67509;BMP280;54354;44.724;11.284;2023-03-04T06:52:37;101769.78;;;13.11
67509;BMP280;54354;44.724;11.284;2023-03-04T06:55:03;101771.34;;;13.09
67509;BMP280;54354;44.724;11.284;2023-03-04T06:57:28;101774.38;;;13.07
67509;BMP280;54354;44.724;11.284;2023-03-04T06:59:54;101785.38;;;13.09
67509;BMP280;54354;44.724;11.284;2023-03-04T07:02:19;101782.31;;;13.14
67509;BMP280;54354;44.724;11.284;2023-03-04T07:04:45;101779.19;;;13.19
67509;BMP280;54354;44.724;11.284;2023-03-04T07:07:11;101774.56;;;13.27
67509;BMP280;54354;44.724;11.284;2023-03-04T07:09:36;101782.81;;;13.36
67509;BMP280;54354;44.724;11.284;2023-03-04T07:12:02;101785.78;;;13.45
67509;BMP280;54354;44.724;11.284;2023-03-04T07:14:28;101782.22;;;13.56
67509;BMP280;54354;44.724;11.284;2023-03-04T07:16:53;101784.41;;;13.68
67509;BMP280;54354;44.724;11.284;2023-03-04T07:19:19;101787.59;;;13.83
67509;BMP280;54354;44.724;11.284;2023-03-04T07:21:44;101786.72;;;13.93
67509;BMP280;54354;44.724;11.284;2023-03-04T07:24:11;101792.66;;;14.04
67509;BMP280;54354;44.724;11.284;2023-03-04T07:26:37;101797.81;;;14.15
67509;BMP280;54354;44.724;11.284;2023-03-04T07:29:03;101796.16;;;14.24
67509;BMP280;54354;44.724;11.284;2023-03-04T07:31:31;101792.31;;;14.29
67509;BMP280;54354;44.724;11.284;2023-03-04T07:33:59;101799.47;;;14.32
67509;BMP280;54354;44.724;11.284;2023-03-04T07:36:26;101793.66;;;14.41
67509;BMP280;54354;44.724;11.284;2023-03-04T07:38:52;101797.38;;;14.47
67509;BMP280;54354;44.724;11.284;2023-03-04T07:41:23;101797.25;;;14.54
67509;BMP280;54354;44.724;11.284;2023-03-04T07:43:49;101805.00;;;14.68
67509;BMP280;54354;44.724;11.284;2023-03-04T07:46:15;101802.03;;;14.86
67509;BMP280;54354;44.724;11.284;2023-03-04T07:48:40;101801.06;;;15.00
67509;BMP280;54354;44.724;11.284;2023-03-04T07:51:12;101797.44;;;15.10
67509;BMP280;54354;44.724;11.284;2023-03-04T07:53:39;101791.91;;;15.21
67509;BMP280;54354;44.724;11.284;2023-03-04T07:56:07;101794.78;;;15.30
67509;BMP280;54354;44.724;11.284;2023-03-04T07:58:32;101791.88;;;15.40
67509;BMP280;54354;44.724;11.284;2023-03-04T08:00:58;101803.44;;;15.54
67509;BMP280;54354;44.724;11.284;2023-03-04T08:03:24;101794.47;;;15.64
67509;BMP280;54354;44.724;11.284;2023-03-04T08:05:50;101804.09;;;15.78
67509;BMP280;54354;44.724;11.284;2023-03-04T08:08:15;101802.22;;;15.94
67509;BMP280;54354;44.724;11.284;2023-03-04T08:10:41;101807.94;;;16.13
67509;BMP280;54354;44.724;11.284;2023-03-04T08:13:07;101797.97;;;16.30
67509;BMP280;54354;44.724;11.284;2023-03-04T08:15:33;101796.13;;;16.43
67509;BMP280;54354;44.724;11.284;2023-03-04T08:18:00;101803.53;;;16.52
67509;BMP280;54354;44.724;11.284;2023-03-04T08:20:26;101787.69;;;16.61
67509;BMP280;54354;44.724;11.284;2023-03-04T08:22:52;101797.22;;;16.74
67509;BMP280;54354;44.724;11.284;2023-03-04T08:25:17;101796.22;;;16.85
67509;BMP280;54354;44.724;11.284;2023-03-04T08:27:43;101791.75;;;16.94
67509;BMP280;54354;44.724;11.284;2023-03-04T08:30:09;101790.81;;;17.01
67509;BMP280;54354;44.724;11.284;2023-03-04T08:32:35;101782.66;;;17.04
67509;BMP280;54354;44.724;11.284;2023-03-04T08:35:00;101780.66;;;17.09
67509;BMP280;54354;44.724;11.284;2023-03-04T08:37:28;101776.16;;;17.06
67509;BMP280;54354;44.724;11.284;2023-03-04T08:39:54;101773.81;;;17.08
67509;BMP280;54354;44.724;11.284;2023-03-04T08:42:19;101784.50;;;17.08
67509;BMP280;54354;44.724;11.284;2023-03-04T08:44:45;101780.75;;;17.05
67509;BMP280;54354;44.724;11.284;2023-03-04T08:47:11;101780.84;;;17.01
67509;BMP280;54354;44.724;11.284;2023-03-04T08:49:36;101782.78;;;17.01
67509;BMP280;54354;44.724;11.284;2023-03-04T08:52:02;101780.41;;;17.03
67509;BMP280;54354;44.724;11.284;2023-03-04T08:54:28;101785.34;;;17.04
67509;BMP280;54354;44.724;11.284;2023-03-04T08:56:53;101779.16;;;17.08
67509;BMP280;54354;44.724;11.284;2023-03-04T08:59:19;101784.41;;;17.11
67509;BMP280;54354;44.724;11.284;2023-03-04T09:01:44;101774.03;;;17.13
67509;BMP280;54354;44.724;11.284;2023-03-04T09:04:10;101775.53;;;17.14
67509;BMP280;54354;44.724;11.284;2023-03-04T09:06:35;101769.75;;;17.16
67509;BMP280;54354;44.724;11.284;2023-03-04T09:09:02;101777.13;;;17.12
67509;BMP280;54354;44.724;11.284;2023-03-04T09:11:28;101766.00;;;17.13
67509;BMP280;54354;44.724;11.284;2023-03-04T09:13:53;101776.63;;;17.17
67509;BMP280;54354;44.724;11.284;2023-03-04T09:16:19;101771.56;;;17.19
67509;BMP280;54354;44.724;11.284;2023-03-04T09:18:44;101777.25;;;17.21
67509;BMP280;54354;44.724;11.284;2023-03-04T09:21:10;101774.47;;;17.24
67509;BMP280;54354;44.724;11.284;2023-03-04T09:23:36;101771.38;;;17.26
67509;BMP280;54354;44.724;11.284;2023-03-04T09:26:17;101764.09;;;17.26
67509;BMP280;54354;44.724;11.284;2023-03-04T09:28:43;101764.34;;;17.32
67509;BMP280;54354;44.724;11.284;2023-03-04T09:31:13;101763.47;;;17.35
67509;BMP280;54354;44.724;11.284;2023-03-04T09:33:39;101763.88;;;17.46
67509;BMP280;54354;44.724;11.284;2023-03-04T09:36:09;101765.81;;;17.46
67509;BMP280;54354;44.724;11.284;2023-03-04T09:38:35;101757.59;;;17.53
67509;BMP280;54354;44.724;11.284;2023-03-04T09:41:06;101762.63;;;17.51
67509;BMP280;54354;44.724;11.284;2023-03-04T09:43:32;101755.44;;;17.60
67509;BMP280;54354;44.724;11.284;2023-03-04T09:46:01;101753.09;;;17.63
67509;BMP280;54354;44.724;11.284;2023-03-04T09:48:30;101760.59;;;17.68
67509;BMP280;54354;44.724;11.284;2023-03-04T09:51:08;101754.25;;;17.74
67509;BMP280;54354;44.724;11.284;2023-03-04T09:56:13;101750.81;;;17.86
67509;BMP280;54354;44.724;11.284;2023-03-04T09:59:02;101754.75;;;17.95
67509;BMP280;54354;44.724;11.284;2023-03-04T10:01:43;101746.41;;;17.93
67509;BMP280;54354;44.724;11.284;2023-03-04T10:04:34;101748.72;;;18.03
67509;BMP280;54354;44.724;11.284;2023-03-04T10:07:02;101743.19;;;17.98
67509;BMP280;54354;44.724;11.284;2023-03-04T10:12:31;101746.16;;;18.00
67509;BMP280;54354;44.724;11.284;2023-03-04T10:15:04;101750.97;;;18.05
67509;BMP280;54354;44.724;11.284;2023-03-04T10:17:39;101741.00;;;18.05
67509;BMP280;54354;44.724;11.284;2023-03-04T10:20:14;101732.88;;;18.09
67509;BMP280;54354;44.724;11.284;2023-03-04T10:22:55;101736.06;;;18.17
67509;BMP280;54354;44.724;11.284;2023-03-04T10:25:25;101732.28;;;18.14
67509;BMP280;54354;44.724;11.284;2023-03-04T10:32:54;101734.63;;;18.25
67509;BMP280;54354;44.724;11.284;2023-03-04T10:35:22;101719.69;;;18.24
67509;BMP280;54354;44.724;11.284;2023-03-04T10:37:49;101723.34;;;18.30
67509;BMP280;54354;44.724;11.284;2023-03-04T10:40:24;101722.19;;;18.31
67509;BMP280;54354;44.724;11.284;2023-03-04T10:42:50;101720.84;;;18.35
67509;BMP280;54354;44.724;11.284;2023-03-04T10:45:25;101711.19;;;18.38
67509;BMP280;54354;44.724;11.284;2023-03-04T10:47:52;101716.41;;;18.41
67509;BMP280;54354;44.724;11.284;2023-03-04T10:50:26;101705.25;;;18.43
67509;BMP280;54354;44.724;11.284;2023-03-04T10:52:53;101701.16;;;18.51
67509;BMP280;54354;44.724;11.284;2023-03-04T10:55:41;101706.41;;;18.55
67509;BMP280;54354;44.724;11.284;2023-03-04T10:58:13;101696.91;;;18.63
67509;BMP280;54354;44.724;11.284;2023-03-04T11:00:42;101695.13;;;18.69
67509;BMP280;54354;44.724;11.284;2023-03-04T11:06:04;101689.31;;;18.70
67509;BMP280;54354;44.724;11.284;2023-03-04T11:08:29;101695.75;;;18.73
67509;BMP280;54354;44.724;11.284;2023-03-04T11:10:55;101694.13;;;18.76
67509;BMP280;54354;44.724;11.284;2023-03-04T11:13:25;101682.78;;;18.71
67509;BMP280;54354;44.724;11.284;2023-03-04T11:15:54;101678.78;;;18.76
67509;BMP280;54354;44.724;11.284;2023-03-04T11:18:45;101666.88;;;18.86
67509;BMP280;54354;44.724;11.284;2023-03-04T11:21:24;101670.44;;;18.83
67509;BMP280;54354;44.724;11.284;2023-03-04T11:23:58;101668.22;;;18.82
67509;BMP280;54354;44.724;11.284;2023-03-04T11:26:40;101656.03;;;18.90
67509;BMP280;54354;44.724;11.284;2023-03-04T11:29:18;101660.97;;;18.91
67509;BMP280;54354;44.724;11.284;2023-03-04T11:31:57;101649.34;;;18.94
67509;BMP280;54354;44.724;11.284;2023-03-04T11:34:40;101650.56;;;19.03
67509;BMP280;54354;44.724;11.284;2023-03-04T11:37:11;101649.34;;;19.04
67509;BMP280;54354;44.724;11.284;2023-03-04T11:44:59;101640.72;;;19.09
67509;BMP280;54354;44.724;11.284;2023-03-04T11:50:34;101628.69;;;19.22
67509;BMP280;54354;44.724;11.284;2023-03-04T12:01:08;101607.34;;;19.28
67509;BMP280;54354;44.724;11.284;2023-03-04T12:12:26;101592.59;;;19.42
67509;BMP280;54354;44.724;11.284;2023-03-04T12:15:14;101588.44;;;19.41
67509;BMP280;54354;44.724;11.284;2023-03-04T12:25:38;101577.69;;;19.50
67509;BMP280;54354;44.724;11.284;2023-03-04T12:38:39;101550.97;;;19.55
67509;BMP280;54354;44.724;11.284;2023-03-04T12:49:17;101528.97;;;19.84
67509;BMP280;54354;44.724;11.284;2023-03-04T12:54:35;101521.19;;;19.86
67509;BMP280;54354;44.724;11.284;2023-03-04T12:57:16;101523.72;;;19.90
67509;BMP280;54354;44.724;11.284;2023-03-04T13:10:20;101499.94;;;20.07
67509;BMP280;54354;44.724;11.284;2023-03-04T13:12:50;101508.56;;;20.11
67509;BMP280;54354;44.724;11.284;2023-03-04T13:15:37;101501.53;;;20.13
67509;BMP280;54354;44.724;11.284;2023-03-04T13:18:03;101502.13;;;20.18
67509;BMP280;54354;44.724;11.284;2023-03-04T13:21:05;101496.56;;;20.21
67509;BMP280;54354;44.724;11.284;2023-03-04T13:23:32;101495.84;;;20.21
67509;BMP280;54354;44.724;11.284;2023-03-04T13:28:34;101485.81;;;20.21
67509;BMP280;54354;44.724;11.284;2023-03-04T13:31:10;101484.19;;;20.24
67509;BMP280;54354;44.724;11.284;2023-03-04T13:36:05;101480.81;;;20.38
67509;BMP280;54354;44.724;11.284;2023-03-04T13:38:35;101478.41;;;20.40
67509;BMP280;54354;44.724;11.284;2023-03-04T13:43:59;101477.78;;;20.45
67509;BMP280;54354;44.724;11.284;2023-03-04T13:51:41;101470.75;;;20.48
67509;BMP280;54354;44.724;11.284;2023-03-04T13:54:30;101468.59;;;20.52
67509;BMP280;54354;44.724;11.284;2023-03-04T13:59:44;101462.78;;;20.53
67509;BMP280;54354;44.724;11.284;2023-03-04T14:02:24;101463.22;;;20.52
67509;BMP280;54354;44.724;11.284;2023-03-04T14:05:01;101463.03;;;20.55
67509;BMP280;54354;44.724;11.284;2023-03-04T14:07:31;101457.84;;;20.52
67509;BMP280;54354;44.724;11.284;2023-03-04T14:10:17;101450.69;;;20.49
67509;BMP280;54354;44.724;11.284;2023-03-04T14:12:48;101452.06;;;20.44
67509;BMP280;54354;44.724;11.284;2023-03-04T14:17:48;101448.25;;;20.36
67509;BMP280;54354;44.724;11.284;2023-03-04T14:22:54;101441.53;;;20.31
67509;BMP280;54354;44.724;11.284;2023-03-04T14:27:46;101437.50;;;20.36
67509;BMP280;54354;44.724;11.284;2023-03-04T14:30:26;101440.47;;;20.38
67509;BMP280;54354;44.724;11.284;2023-03-04T14:32:53;101431.47;;;20.41
67509;BMP280;54354;44.724;11.284;2023-03-04T14:35:21;101429.41;;;20.36
67509;BMP280;54354;44.724;11.284;2023-03-04T14:40:30;101425.06;;;20.38
67509;BMP280;54354;44.724;11.284;2023-03-04T14:43:02;101419.97;;;20.40
67509;BMP280;54354;44.724;11.284;2023-03-04T14:45:29;101412.91;;;20.43
67509;BMP280;54354;44.724;11.284;2023-03-04T14:47:59;101409.66;;;20.39
67509;BMP280;54354;44.724;11.284;2023-03-04T14:50:26;101404.09;;;20.42
67509;BMP280;54354;44.724;11.284;2023-03-04T14:53:13;101405.41;;;20.47
67509;BMP280;54354;44.724;11.284;2023-03-04T14:55:57;101394.81;;;20.43
67509;BMP280;54354;44.724;11.284;2023-03-04T14:58:26;101399.94;;;20.41
67509;BMP280;54354;44.724;11.284;2023-03-04T15:03:41;101388.69;;;20.43
67509;BMP280;54354;44.724;11.284;2023-03-04T15:06:23;101385.84;;;20.47
67509;BMP280;54354;44.724;11.284;2023-03-04T15:09:02;101384.38;;;20.46
67509;BMP280;54354;44.724;11.284;2023-03-04T15:11:31;101383.03;;;20.41
67509;BMP280;54354;44.724;11.284;2023-03-04T15:13:59;101375.56;;;20.45
67509;BMP280;54354;44.724;11.284;2023-03-04T15:16:27;101374.97;;;20.41
67509;BMP280;54354;44.724;11.284;2023-03-04T15:18:58;101376.28;;;20.46
67509;BMP280;54354;44.724;11.284;2023-03-04T15:21:28;101367.81;;;20.91
67509;BMP280;54354;44.724;11.284;2023-03-04T15:23:54;101371.78;;;20.66
67509;BMP280;54354;44.724;11.284;2023-03-04T15:26:20;101368.16;;;20.55
67509;BMP280;54354;44.724;11.284;2023-03-04T15:28:45;101364.41;;;20.52
67509;BMP280;54354;44.724;11.284;2023-03-04T15:31:19;101362.66;;;20.49
67509;BMP280;54354;44.724;11.284;2023-03-04T15:33:45;101363.97;;;20.54
67509;BMP280;54354;44.724;11.284;2023-03-04T15:36:16;101358.94;;;20.47
67509;BMP280;54354;44.724;11.284;2023-03-04T15:38:45;101355.50;;;20.46
67509;BMP280;54354;44.724;11.284;2023-03-04T15:41:17;101359.97;;;20.49
67509;BMP280;54354;44.724;11.284;2023-03-04T15:43:43;101350.72;;;20.50
67509;BMP280;54354;44.724;11.284;2023-03-04T15:46:10;101343.81;;;20.49